Time;durP1;ratioP1;P1;durP2;ratioP2;P2;SDS_P1;SDS_P2;PMS_P1;PMS_P2;Temp;Humidity;BMP_temperature;BMP_pressure;BME280_temperature;BME280_humidity;BME280_pressure;Samples;Min_cycle;Max_cycle;Signal;HPM_P1;HPM_P2
2022/08/26 00:01:52;;;;;;;;;;;23.60;99.90;;;;;;5028394;28;20102;-67
2022/08/26 00:04:20;;;;;;;;;;;23.50;99.90;;;;;;5023617;28;20195;-70
2022/08/26 00:06:49;;;;;;;;;;;23.50;99.90;;;;;;5028146;28;20774;-69
2022/08/26 00:09:17;;;;;;;;;;;23.50;99.90;;;;;;5026955;28;25139;-70
2022/08/26 00:11:45;;;;;;;;;;;23.50;99.90;;;;;;5019614;28;20111;-70
2022/08/26 00:14:14;;;;;;;;;;;23.40;99.90;;;;;;5016566;28;20754;-70
2022/08/26 00:16:43;;;;;;;;;;;23.30;99.90;;;;;;5024778;28;20206;-71
2022/08/26 00:19:15;;;;;;;;;;;23.30;99.90;;;;;;5046289;22;20101;-65
2022/08/26 00:21:43;;;;;;;;;;;23.20;99.90;;;;;;5025295;28;20241;-65
2022/08/26 00:24:13;;;;;;;;;;;23.20;99.90;;;;;;5029099;28;20758;-65
2022/08/26 00:26:41;;;;;;;;;;;23.10;99.90;;;;;;5023588;28;20135;-64
2022/08/26 00:29:09;;;;;;;;;;;23.10;99.90;;;;;;5026760;28;20303;-64
2022/08/26 00:31:37;;;;;;;;;;;23.10;99.90;;;;;;5008778;28;20212;-63
2022/08/26 00:34:06;;;;;;;;;;;23.00;99.90;;;;;;5013369;28;21367;-64
2022/08/26 00:36:36;;;;;;;;;;;22.90;99.90;;;;;;5014038;28;20079;-63
2022/08/26 00:39:06;;;;;;;;;;;23.00;99.90;;;;;;5012491;28;25092;-63
2022/08/26 00:41:37;;;;;;;;;;;23.00;99.90;;;;;;5011019;28;20173;-63
2022/08/26 00:44:06;;;;;;;;;;;23.00;99.90;;;;;;5009554;28;20229;-63
2022/08/26 00:46:35;;;;;;;;;;;23.10;99.90;;;;;;5012767;28;20211;-63
2022/08/26 00:49:05;;;;;;;;;;;23.10;99.90;;;;;;5009560;28;20533;-64
2022/08/26 00:51:44;;;;;;;;;;;23.10;99.90;;;;;;5015443;28;20167;-63
2022/08/26 00:54:12;;;;;;;;;;;23.10;99.90;;;;;;5020177;28;25074;-64
2022/08/26 00:56:45;;;;;;;;;;;23.10;99.90;;;;;;5008501;28;20620;-63
2022/08/26 00:59:16;;;;;;;;;;;23.20;99.90;;;;;;5009654;28;20168;-64
2022/08/26 01:01:44;;;;;;;;;;;23.20;99.90;;;;;;5011242;28;20246;-63
2022/08/26 01:04:15;;;;;;;;;;;23.20;99.90;;;;;;5010383;28;21481;-63
2022/08/26 01:06:44;;;;;;;;;;;23.20;99.90;;;;;;5008922;28;20746;-63
2022/08/26 01:09:12;;;;;;;;;;;23.30;99.90;;;;;;5012580;28;20157;-63
2022/08/26 01:11:41;;;;;;;;;;;23.30;99.90;;;;;;5009696;28;20665;-63
2022/08/26 01:14:10;;;;;;;;;;;23.30;99.90;;;;;;5006867;28;20776;-63
2022/08/26 01:16:38;;;;;;;;;;;23.30;99.90;;;;;;5009434;28;20244;-64
2022/08/26 01:19:13;;;;;;;;;;;23.40;99.90;;;;;;5009435;28;20136;-64
2022/08/26 01:21:44;;;;;;;;;;;23.30;99.90;;;;;;4968699;28;20295;-65
2022/08/26 01:24:13;;;;;;;;;;;23.30;99.90;;;;;;4974163;28;20909;-63
2022/08/26 01:26:43;;;;;;;;;;;23.40;99.90;;;;;;4969513;28;20222;-64
2022/08/26 01:29:12;;;;;;;;;;;23.40;99.90;;;;;;4978758;28;20611;-63
2022/08/26 01:31:42;;;;;;;;;;;23.40;99.90;;;;;;4969087;28;25083;-64
2022/08/26 01:34:13;;;;;;;;;;;23.40;99.90;;;;;;4973377;28;20157;-64
2022/08/26 01:36:41;;;;;;;;;;;23.40;99.90;;;;;;4978941;28;20137;-64
2022/08/26 01:39:14;;;;;;;;;;;23.40;99.90;;;;;;4979453;28;20166;-63
2022/08/26 01:41:43;;;;;;;;;;;23.40;99.90;;;;;;4973123;28;21140;-63
2022/08/26 01:44:14;;;;;;;;;;;23.30;99.90;;;;;;4973217;28;20828;-64
2022/08/26 01:46:43;;;;;;;;;;;23.20;99.90;;;;;;4975041;28;20562;-65
2022/08/26 01:49:13;;;;;;;;;;;23.00;99.90;;;;;;4974630;28;20350;-65
2022/08/26 01:51:43;;;;;;;;;;;22.80;99.90;;;;;;4976084;28;20422;-65
2022/08/26 01:54:11;;;;;;;;;;;22.70;99.90;;;;;;4974914;28;20747;-65
2022/08/26 01:56:41;;;;;;;;;;;22.60;99.90;;;;;;4972739;28;20378;-65
2022/08/26 01:59:13;;;;;;;;;;;22.50;99.90;;;;;;4973662;28;20555;-65
2022/08/26 02:01:41;;;;;;;;;;;22.30;99.90;;;;;;4972862;28;20214;-64
2022/08/26 02:04:12;;;;;;;;;;;22.20;99.90;;;;;;4972643;28;20131;-64
2022/08/26 02:06:40;;;;;;;;;;;22.10;99.90;;;;;;4974919;28;20139;-65
2022/08/26 02:09:08;;;;;;;;;;;22.10;99.90;;;;;;4979139;28;20157;-64
2022/08/26 02:11:36;;;;;;;;;;;22.10;99.90;;;;;;4970473;28;20278;-64
2022/08/26 02:14:08;;;;;;;;;;;22.00;99.90;;;;;;4975055;28;20553;-65
2022/08/26 02:16:38;;;;;;;;;;;22.10;99.90;;;;;;4972759;28;20313;-64
2022/08/26 02:19:10;;;;;;;;;;;22.00;99.90;;;;;;4973033;28;20231;-65
2022/08/26 02:21:45;;;;;;;;;;;22.00;99.90;;;;;;4975889;28;20749;-65
2022/08/26 02:24:19;;;;;;;;;;;22.00;99.90;;;;;;4974168;28;20298;-66
2022/08/26 02:26:47;;;;;;;;;;;22.10;99.90;;;;;;4973636;28;20098;-66
2022/08/26 02:29:20;;;;;;;;;;;22.10;99.90;;;;;;4972925;28;20167;-66
2022/08/26 02:31:48;;;;;;;;;;;22.10;99.90;;;;;;4973205;28;20084;-66
2022/08/26 02:34:22;;;;;;;;;;;22.00;99.90;;;;;;4972307;28;20088;-66
2022/08/26 02:36:49;;;;;;;;;;;22.00;99.90;;;;;;4972275;28;20287;-66
2022/08/26 02:39:17;;;;;;;;;;;22.20;99.90;;;;;;4978519;28;20242;-66
2022/08/26 02:41:49;;;;;;;;;;;22.30;99.90;;;;;;4971461;28;20105;-66
2022/08/26 02:44:18;;;;;;;;;;;22.30;99.90;;;;;;4971862;28;20615;-64
2022/08/26 02:46:46;;;;;;;;;;;22.40;99.90;;;;;;4981865;28;25137;-64
2022/08/26 02:49:15;;;;;;;;;;;22.50;99.90;;;;;;4974662;28;20094;-64
2022/08/26 02:51:43;;;;;;;;;;;22.60;99.90;;;;;;4975006;28;20111;-64
2022/08/26 02:54:11;;;;;;;;;;;22.60;99.90;;;;;;4975227;28;20768;-65
2022/08/26 02:56:39;;;;;;;;;;;22.80;99.90;;;;;;4974697;28;20210;-64
2022/08/26 02:59:07;;;;;;;;;;;22.80;99.90;;;;;;4977635;28;20296;-64
2022/08/26 03:01:36;;;;;;;;;;;23.00;99.90;;;;;;4974616;28;20350;-63
2022/08/26 03:04:05;;;;;;;;;;;23.10;99.90;;;;;;4974550;28;25086;-63
2022/08/26 03:06:33;;;;;;;;;;;23.10;99.90;;;;;;4980058;28;20107;-64
2022/08/26 03:09:03;;;;;;;;;;;23.10;99.90;;;;;;4973952;28;20284;-63
2022/08/26 03:11:31;;;;;;;;;;;23.20;99.90;;;;;;4974824;28;20599;-64
2022/08/26 03:14:00;;;;;;;;;;;23.10;99.90;;;;;;4974273;28;20232;-64
2022/08/26 03:16:31;;;;;;;;;;;23.10;99.90;;;;;;4974775;28;20216;-64
2022/08/26 03:19:01;;;;;;;;;;;23.20;99.90;;;;;;4973260;28;20208;-64
2022/08/26 03:21:29;;;;;;;;;;;23.20;99.90;;;;;;5017474;28;25161;-65
2022/08/26 03:23:58;;;;;;;;;;;23.10;99.90;;;;;;5017878;28;20087;-64
2022/08/26 03:26:28;;;;;;;;;;;23.00;99.90;;;;;;5012589;28;20203;-64
2022/08/26 03:31:41;;;;;;;;;;;23.10;99.90;;;;;;5013150;28;20649;-64
2022/08/26 03:34:11;;;;;;;;;;;23.30;99.90;;;;;;5013132;28;20203;-64
2022/08/26 03:36:39;;;;;;;;;;;23.20;99.90;;;;;;5011132;28;20585;-64
2022/08/26 03:39:08;;;;;;;;;;;23.30;99.90;;;;;;5014853;28;20528;-63
2022/08/26 03:41:36;;;;;;;;;;;23.30;99.90;;;;;;5017382;28;20598;-64
2022/08/26 03:44:04;;;;;;;;;;;23.30;99.90;;;;;;5032592;28;20718;-64
2022/08/26 03:46:32;;;;;;;;;;;23.20;99.90;;;;;;5026180;28;20680;-64
2022/08/26 03:49:01;;;;;;;;;;;23.30;99.90;;;;;;5010368;28;20726;-64
2022/08/26 03:51:30;;;;;;;;;;;23.20;99.90;;;;;;5012299;28;20718;-64
2022/08/26 03:54:01;;;;;;;;;;;23.10;99.90;;;;;;5012796;28;25086;-64
2022/08/26 03:56:32;;;;;;;;;;;22.80;99.90;;;;;;5022925;28;20147;-64
2022/08/26 03:58:59;;;;;;;;;;;22.70;99.90;;;;;;5017013;28;20225;-64
2022/08/26 04:01:28;;;;;;;;;;;22.60;99.90;;;;;;5008694;28;20453;-64
2022/08/26 04:03:57;;;;;;;;;;;22.60;99.90;;;;;;5016756;28;20219;-64
2022/08/26 04:06:28;;;;;;;;;;;22.60;99.90;;;;;;5012566;28;20254;-65
2022/08/26 04:08:58;;;;;;;;;;;22.60;99.90;;;;;;5006455;28;20261;-65
2022/08/26 04:11:30;;;;;;;;;;;22.50;99.90;;;;;;5010472;28;20524;-66
2022/08/26 04:14:01;;;;;;;;;;;22.40;99.90;;;;;;5012553;28;20238;-65
2022/08/26 04:16:29;;;;;;;;;;;22.40;99.90;;;;;;5012279;28;20260;-64
2022/08/26 04:18:58;;;;;;;;;;;22.30;99.90;;;;;;5006958;28;20700;-66
2022/08/26 04:21:26;;;;;;;;;;;22.10;99.90;;;;;;5002867;28;20288;-65
2022/08/26 04:23:54;;;;;;;;;;;22.10;99.90;;;;;;5000386;28;20208;-65
2022/08/26 04:26:26;;;;;;;;;;;22.00;99.90;;;;;;4998686;28;20311;-64
2022/08/26 04:28:54;;;;;;;;;;;21.90;99.90;;;;;;5000766;28;20219;-65
2022/08/26 04:31:22;;;;;;;;;;;21.90;99.90;;;;;;4998880;28;20388;-64
2022/08/26 04:33:50;;;;;;;;;;;21.90;99.90;;;;;;5002501;28;20491;-66
2022/08/26 04:36:18;;;;;;;;;;;21.80;99.90;;;;;;4999862;28;20959;-65
2022/08/26 04:38:47;;;;;;;;;;;21.80;99.90;;;;;;4999817;28;20745;-65
2022/08/26 04:41:14;;;;;;;;;;;21.80;99.90;;;;;;4999808;28;20422;-65
2022/08/26 04:43:45;;;;;;;;;;;21.70;99.90;;;;;;5001772;28;20249;-64
2022/08/26 04:46:15;;;;;;;;;;;21.70;99.90;;;;;;4998608;28;20245;-65
2022/08/26 04:48:44;;;;;;;;;;;21.70;99.90;;;;;;5000943;28;20233;-64
2022/08/26 04:51:11;;;;;;;;;;;21.60;99.90;;;;;;4998799;28;20704;-65
2022/08/26 04:53:39;;;;;;;;;;;21.70;99.90;;;;;;5000132;28;20660;-65
2022/08/26 04:56:07;;;;;;;;;;;21.60;99.90;;;;;;4997513;28;20154;-64
2022/08/26 04:58:37;;;;;;;;;;;21.60;99.90;;;;;;4998928;28;21187;-64
2022/08/26 05:01:07;;;;;;;;;;;21.50;99.90;;;;;;4998208;28;20517;-65
2022/08/26 05:03:35;;;;;;;;;;;21.50;99.90;;;;;;4999080;28;20493;-64
2022/08/26 05:06:04;;;;;;;;;;;21.50;99.90;;;;;;4997130;28;21067;-64
2022/08/26 05:08:32;;;;;;;;;;;21.50;99.90;;;;;;5002447;28;21219;-66
2022/08/26 05:11:03;;;;;;;;;;;21.50;99.90;;;;;;5003439;28;20127;-66
2022/08/26 05:13:33;;;;;;;;;;;21.60;99.90;;;;;;5004082;28;20594;-65
2022/08/26 05:16:06;;;;;;;;;;;21.60;99.90;;;;;;5002239;28;20356;-65
2022/08/26 05:18:34;;;;;;;;;;;21.60;99.90;;;;;;5003778;28;25114;-66
2022/08/26 05:21:02;;;;;;;;;;;21.50;99.90;;;;;;5003222;28;20833;-66
2022/08/26 05:23:31;;;;;;;;;;;21.60;99.90;;;;;;5004068;28;20792;-65
2022/08/26 05:25:59;;;;;;;;;;;21.60;99.90;;;;;;5002283;28;20266;-65
2022/08/26 05:28:31;;;;;;;;;;;21.70;99.90;;;;;;5003275;28;21366;-65
2022/08/26 05:30:59;;;;;;;;;;;21.70;99.90;;;;;;5001801;28;20774;-67
2022/08/26 05:33:28;;;;;;;;;;;21.80;99.90;;;;;;5003038;28;20093;-64
2022/08/26 05:35:56;;;;;;;;;;;21.90;99.90;;;;;;5000953;28;20390;-65
2022/08/26 05:38:23;;;;;;;;;;;21.90;99.90;;;;;;5003322;28;20169;-65
2022/08/26 05:40:57;;;;;;;;;;;21.90;99.90;;;;;;5001653;28;20649;-66
2022/08/26 05:43:26;;;;;;;;;;;21.90;99.90;;;;;;5003010;28;25118;-65
2022/08/26 05:45:54;;;;;;;;;;;22.00;99.90;;;;;;5001532;28;20116;-65
2022/08/26 05:48:22;;;;;;;;;;;22.00;99.90;;;;;;5003403;28;20518;-66
2022/08/26 05:50:53;;;;;;;;;;;22.00;99.90;;;;;;5000883;28;20147;-65
2022/08/26 05:53:21;;;;;;;;;;;22.00;99.90;;;;;;5001000;28;20683;-65
2022/08/26 05:55:53;;;;;;;;;;;22.00;99.90;;;;;;5001268;28;21517;-65
2022/08/26 05:58:22;;;;;;;;;;;22.10;99.90;;;;;;5005934;28;20004;-65
2022/08/26 06:00:56;;;;;;;;;;;22.10;99.90;;;;;;5005796;28;20203;-65
2022/08/26 06:03:24;;;;;;;;;;;22.10;99.90;;;;;;5005935;28;20083;-64
2022/08/26 06:05:53;;;;;;;;;;;22.20;99.90;;;;;;5004593;28;20937;-65
2022/08/26 06:08:21;;;;;;;;;;;22.30;99.90;;;;;;5006567;28;20734;-65
2022/08/26 06:10:50;;;;;;;;;;;22.30;99.90;;;;;;5010268;28;20691;-65
2022/08/26 06:13:19;;;;;;;;;;;22.40;99.90;;;;;;5016377;28;20903;-65
2022/08/26 06:15:48;;;;;;;;;;;22.40;99.90;;;;;;5021392;28;20040;-65
2022/08/26 06:18:18;;;;;;;;;;;22.40;99.90;;;;;;5019751;28;20136;-65
2022/08/26 06:20:47;;;;;;;;;;;22.30;99.90;;;;;;5054750;22;21296;-65
2022/08/26 06:26:12;;;;;;;;;;;22.30;99.90;;;;;;5055529;28;20116;-65
2022/08/26 06:28:40;;;;;;;;;;;22.40;99.90;;;;;;5058835;28;20074;-65
2022/08/26 06:31:12;;;;;;;;;;;22.50;99.90;;;;;;5054193;28;20151;-64
2022/08/26 06:33:40;;;;;;;;;;;22.60;99.90;;;;;;5038215;28;20265;-64
2022/08/26 06:36:08;;;;;;;;;;;22.70;99.90;;;;;;5053925;28;20786;-64
2022/08/26 06:38:37;;;;;;;;;;;22.90;99.90;;;;;;5053253;28;20302;-65
2022/08/26 06:41:07;;;;;;;;;;;23.00;99.90;;;;;;5053592;28;20655;-64
2022/08/26 06:43:35;;;;;;;;;;;23.10;99.90;;;;;;5054271;28;20024;-64
2022/08/26 06:46:04;;;;;;;;;;;23.20;99.90;;;;;;5053818;28;20565;-64
2022/08/26 06:48:33;;;;;;;;;;;23.40;99.90;;;;;;5052967;28;21206;-65
2022/08/26 06:51:02;;;;;;;;;;;23.40;99.90;;;;;;5053554;28;20343;-64
2022/08/26 06:53:30;;;;;;;;;;;23.60;99.90;;;;;;5053840;28;20228;-64
2022/08/26 06:56:02;;;;;;;;;;;23.70;99.90;;;;;;5053794;28;20605;-64
2022/08/26 06:58:30;;;;;;;;;;;23.90;99.90;;;;;;5053613;28;25069;-65
2022/08/26 07:00:58;;;;;;;;;;;24.00;99.90;;;;;;5053228;28;20271;-64
2022/08/26 07:03:38;;;;;;;;;;;24.20;99.90;;;;;;5033642;28;20134;-64
2022/08/26 07:06:07;;;;;;;;;;;24.40;99.90;;;;;;5033525;28;20333;-64
2022/08/26 07:08:34;;;;;;;;;;;24.60;99.90;;;;;;5033499;28;20646;-64
2022/08/26 07:11:05;;;;;;;;;;;24.80;99.90;;;;;;5033012;28;20747;-64
2022/08/26 07:13:36;;;;;;;;;;;24.90;99.90;;;;;;5033655;28;20233;-65
2022/08/26 07:16:04;;;;;;;;;;;25.00;99.90;;;;;;5033407;28;20698;-65
2022/08/26 07:18:33;;;;;;;;;;;25.10;99.90;;;;;;5033396;28;20334;-64
2022/08/26 07:21:01;;;;;;;;;;;25.30;99.90;;;;;;5032453;28;25138;-65
2022/08/26 07:23:29;;;;;;;;;;;25.30;99.90;;;;;;5033832;28;20979;-65
2022/08/26 07:25:57;;;;;;;;;;;25.50;99.90;;;;;;5033270;28;20769;-64
2022/08/26 07:28:26;;;;;;;;;;;25.40;99.90;;;;;;5033144;28;20330;-64
2022/08/26 07:30:54;;;;;;;;;;;25.40;99.90;;;;;;5031851;28;25080;-64
2022/08/26 07:33:22;;;;;;;;;;;25.40;99.90;;;;;;5033048;28;20689;-64
2022/08/26 07:35:50;;;;;;;;;;;25.40;99.90;;;;;;5032946;28;20563;-64
2022/08/26 07:38:18;;;;;;;;;;;25.30;99.90;;;;;;5032955;28;21158;-64
2022/08/26 07:40:46;;;;;;;;;;;25.30;99.90;;;;;;5032513;28;20285;-64
2022/08/26 07:43:14;;;;;;;;;;;25.30;99.90;;;;;;5033693;28;20244;-65
2022/08/26 07:45:44;;;;;;;;;;;25.20;99.90;;;;;;5032843;28;20212;-64
2022/08/26 07:48:12;;;;;;;;;;;25.20;99.90;;;;;;5032149;28;25076;-65
2022/08/26 07:50:41;;;;;;;;;;;25.10;99.90;;;;;;5032216;28;20684;-65
2022/08/26 07:53:17;;;;;;;;;;;25.10;99.90;;;;;;5032585;28;20506;-64
2022/08/26 07:55:46;;;;;;;;;;;25.00;99.90;;;;;;5032636;28;20405;-64
2022/08/26 07:58:13;;;;;;;;;;;25.10;99.90;;;;;;5032523;28;20114;-64
2022/08/26 08:00:42;;;;;;;;;;;25.00;99.90;;;;;;5032108;28;20686;-65
2022/08/26 08:03:12;;;;;;;;;;;24.90;99.90;;;;;;5032286;28;25066;-64
2022/08/26 08:05:41;;;;;;;;;;;24.80;99.90;;;;;;5032496;28;20972;-65
2022/08/26 08:08:09;;;;;;;;;;;24.70;99.90;;;;;;5032437;28;20679;-64
2022/08/26 08:10:55;;;;;;;;;;;24.70;99.90;;;;;;5031877;28;20096;-64
2022/08/26 08:13:23;;;;;;;;;;;24.80;99.90;;;;;;5033171;28;20748;-64
2022/08/26 08:15:50;;;;;;;;;;;24.80;99.90;;;;;;5052252;28;20100;-65
2022/08/26 08:18:22;;;;;;;;;;;24.80;99.90;;;;;;5052279;28;20189;-64
2022/08/26 08:20:49;;;;;;;;;;;24.80;99.90;;;;;;5051852;28;20249;-64
2022/08/26 08:23:32;;;;;;;;;;;24.80;99.90;;;;;;5052012;28;25071;-65
2022/08/26 08:26:01;;;;;;;;;;;24.70;99.90;;;;;;5052249;28;20391;-64
2022/08/26 08:28:29;;;;;;;;;;;24.80;99.90;;;;;;5052130;28;20671;-64
2022/08/26 08:30:56;;;;;;;;;;;24.80;99.90;;;;;;5051740;28;20864;-64
2022/08/26 08:33:26;;;;;;;;;;;24.90;99.90;;;;;;5051875;28;20941;-64
2022/08/26 08:35:54;;;;;;;;;;;25.00;99.90;;;;;;5049791;28;20843;-65
2022/08/26 08:38:22;;;;;;;;;;;25.20;99.90;;;;;;5051794;28;21105;-64
2022/08/26 08:40:50;;;;;;;;;;;25.50;99.90;;;;;;5038110;28;20927;-65
2022/08/26 08:43:25;;;;;;;;;;;25.60;99.90;;;;;;5031629;28;20704;-64
2022/08/26 08:45:56;;;;;;;;;;;25.80;99.90;;;;;;5032035;28;20812;-64
2022/08/26 08:48:25;;;;;;;;;;;26.00;99.90;;;;;;5031280;28;20254;-64
2022/08/26 08:51:03;;;;;;;;;;;26.30;99.90;;;;;;5031615;28;20622;-64
2022/08/26 08:53:33;;;;;;;;;;;26.30;99.90;;;;;;5031831;28;20244;-65
2022/08/26 08:56:07;;;;;;;;;;;26.50;99.90;;;;;;5045658;28;20122;-64
2022/08/26 08:58:42;;;;;;;;;;;26.60;99.90;;;;;;5051820;28;20148;-64
2022/08/26 09:01:16;;;;;;;;;;;26.80;99.90;;;;;;5051360;28;20261;-65
2022/08/26 09:03:47;;;;;;;;;;;27.00;99.90;;;;;;5051596;28;20090;-64
2022/08/26 09:06:19;;;;;;;;;;;27.30;99.90;;;;;;5051968;28;20248;-65
2022/08/26 09:08:48;;;;;;;;;;;27.30;99.90;;;;;;5051595;28;20584;-65
2022/08/26 09:11:19;;;;;;;;;;;27.30;99.90;;;;;;5032829;28;25112;-65
2022/08/26 09:13:48;;;;;;;;;;;27.40;99.90;;;;;;5031716;28;20157;-65
2022/08/26 09:16:18;;;;;;;;;;;27.50;99.90;;;;;;5031773;28;20601;-64
2022/08/26 09:18:55;;;;;;;;;;;27.50;99.90;;;;;;5031638;28;25087;-65
2022/08/26 09:21:25;;;;;;;;;;;27.50;99.90;;;;;;5030918;28;20141;-64
2022/08/26 09:23:55;;;;;;;;;;;27.30;99.90;;;;;;5031740;28;20853;-65
2022/08/26 09:26:25;;;;;;;;;;;27.30;99.90;;;;;;5050436;28;25143;-66
2022/08/26 09:28:56;;;;;;;;;;;27.20;99.90;;;;;;5051515;28;20089;-65
2022/08/26 09:31:27;;;;;;;;;;;27.20;99.90;;;;;;5050987;28;20328;-64
2022/08/26 09:34:13;;;;;;;;;;;27.20;99.90;;;;;;5051169;28;20257;-65
2022/08/26 09:36:47;;;;;;;;;;;27.20;99.90;;;;;;5051572;28;20083;-65
2022/08/26 09:39:29;;;;;;;;;;;27.10;99.90;;;;;;5048988;28;20245;-65
2022/08/26 09:42:08;;;;;;;;;;;26.90;99.90;;;;;;5031213;28;20218;-64
2022/08/26 09:44:52;;;;;;;;;;;26.80;99.90;;;;;;5031313;28;20683;-65
2022/08/26 09:47:21;;;;;;;;;;;26.70;99.90;;;;;;5031506;28;20203;-64
2022/08/26 09:49:56;;;;;;;;;;;26.60;99.90;;;;;;5030536;28;20217;-65
2022/08/26 09:52:26;;;;;;;;;;;26.70;99.90;;;;;;5031154;28;20227;-65
2022/08/26 09:55:00;;;;;;;;;;;26.70;99.90;;;;;;5038883;28;20205;-65
2022/08/26 09:57:31;;;;;;;;;;;26.60;99.90;;;;;;5054916;28;20142;-64
2022/08/26 10:00:00;;;;;;;;;;;26.60;99.90;;;;;;5054471;28;20310;-65
2022/08/26 10:02:36;;;;;;;;;;;26.60;99.90;;;;;;5053474;28;20190;-64
2022/08/26 10:05:07;;;;;;;;;;;26.60;99.90;;;;;;5034802;28;20253;-64
2022/08/26 10:07:42;;;;;;;;;;;26.60;99.90;;;;;;5034308;28;20757;-63
2022/08/26 10:10:13;;;;;;;;;;;26.60;99.90;;;;;;5035683;28;20222;-64
2022/08/26 10:12:46;;;;;;;;;;;26.50;99.90;;;;;;5034511;28;20566;-64
2022/08/26 10:15:14;;;;;;;;;;;26.50;99.90;;;;;;5034329;28;25136;-64
2022/08/26 10:17:48;;;;;;;;;;;26.40;99.90;;;;;;5034484;28;20083;-65
2022/08/26 10:20:17;;;;;;;;;;;26.50;99.90;;;;;;5034237;28;20268;-64
2022/08/26 10:22:55;;;;;;;;;;;26.60;99.90;;;;;;5034210;28;20209;-64
2022/08/26 10:25:24;;;;;;;;;;;26.60;99.90;;;;;;5034571;28;20206;-64
2022/08/26 10:27:58;;;;;;;;;;;26.80;99.90;;;;;;5034263;28;20200;-65
2022/08/26 10:30:30;;;;;;;;;;;26.90;99.90;;;;;;5034354;28;20631;-65
2022/08/26 10:33:00;;;;;;;;;;;27.00;99.90;;;;;;5034188;28;20191;-64
2022/08/26 10:35:30;;;;;;;;;;;27.00;99.90;;;;;;5034264;28;20234;-65
2022/08/26 10:38:02;;;;;;;;;;;27.20;99.90;;;;;;5034217;28;20265;-65
2022/08/26 10:40:42;;;;;;;;;;;27.20;99.90;;;;;;5033871;28;20199;-64
2022/08/26 10:43:14;;;;;;;;;;;27.30;99.90;;;;;;5034095;28;20630;-65
2022/08/26 10:45:43;;;;;;;;;;;27.50;99.90;;;;;;5034053;28;20678;-65
2022/08/26 10:48:12;;;;;;;;;;;27.60;99.90;;;;;;5033985;28;20212;-65
2022/08/26 10:50:41;;;;;;;;;;;27.60;99.90;;;;;;5033545;28;20137;-64
2022/08/26 10:53:14;;;;;;;;;;;27.70;99.90;;;;;;5033460;28;20085;-65
2022/08/26 10:55:45;;;;;;;;;;;27.70;99.90;;;;;;5033909;28;20221;-65
2022/08/26 10:58:23;;;;;;;;;;;27.70;99.90;;;;;;5033823;28;20203;-64
2022/08/26 11:03:52;;;;;;;;;;;27.90;99.90;;;;;;5038533;28;20584;-65
2022/08/26 11:06:26;;;;;;;;;;;28.00;99.90;;;;;;5053875;28;20243;-64
2022/08/26 11:08:56;;;;;;;;;;;28.00;99.90;;;;;;5053872;28;20202;-64
2022/08/26 11:11:46;;;;;;;;;;;28.10;99.90;;;;;;5053556;28;20214;-65
2022/08/26 11:14:29;;;;;;;;;;;28.10;99.90;;;;;;5053276;28;20746;-64
2022/08/26 11:17:12;;;;;;;;;;;28.10;99.90;;;;;;5053488;28;20233;-65
2022/08/26 11:20:10;;;;;;;;;;;28.00;99.90;;;;;;5052926;28;20203;-65
2022/08/26 11:22:41;;;;;;;;;;;28.00;99.90;;;;;;5053367;28;20300;-64
2022/08/26 11:25:16;;;;;;;;;;;28.10;99.90;;;;;;5053503;28;20220;-65
2022/08/26 11:28:03;;;;;;;;;;;28.10;99.90;;;;;;5053331;28;20279;-65
2022/08/26 11:30:39;;;;;;;;;;;28.10;99.90;;;;;;5042751;28;20208;-64
2022/08/26 11:33:08;;;;;;;;;;;28.10;99.90;;;;;;5033050;28;20587;-65
2022/08/26 11:35:47;;;;;;;;;;;28.10;99.90;;;;;;5033134;28;20206;-65
2022/08/26 11:38:21;;;;;;;;;;;28.10;99.90;;;;;;5033219;28;20227;-66
2022/08/26 11:41:08;;;;;;;;;;;28.10;99.90;;;;;;5032790;28;20260;-65
2022/08/26 11:43:37;;;;;;;;;;;28.10;99.90;;;;;;5033064;28;20622;-65
2022/08/26 11:46:07;;;;;;;;;;;28.00;99.90;;;;;;5033131;28;20217;-65
2022/08/26 11:48:36;;;;;;;;;;;28.10;99.90;;;;;;5032794;28;20201;-65
2022/08/26 11:51:05;;;;;;;;;;;28.10;99.90;;;;;;5033571;28;20217;-65
2022/08/26 11:53:35;;;;;;;;;;;28.20;99.90;;;;;;5039437;28;20203;-64
2022/08/26 11:56:05;;;;;;;;;;;28.30;99.90;;;;;;5052631;28;20263;-64
2022/08/26 11:58:35;;;;;;;;;;;28.40;99.90;;;;;;5052482;28;20732;-65
2022/08/26 12:01:05;;;;;;;;;;;28.40;99.90;;;;;;5052323;28;20679;-65
2022/08/26 12:03:39;;;;;;;;;;;28.50;99.90;;;;;;5052743;28;20197;-65
2022/08/26 12:06:11;;;;;;;;;;;28.70;99.90;;;;;;5042102;28;20203;-65
2022/08/26 12:08:42;;;;;;;;;;;28.90;99.90;;;;;;5042412;28;20686;-65
2022/08/26 12:11:13;;;;;;;;;;;29.00;99.90;;;;;;5048643;28;20590;-64
2022/08/26 12:13:42;;;;;;;;;;;29.10;99.90;;;;;;5032750;28;20245;-65
2022/08/26 12:16:12;;;;;;;;;;;29.40;99.90;;;;;;5031196;28;20721;-65
2022/08/26 12:18:42;;;;;;;;;;;29.90;99.90;;;;;;5034354;28;21606;-65
2022/08/26 12:21:14;;;;;;;;;;;30.20;99.90;;;;;;5072796;23;20713;-67
2022/08/26 12:23:44;;;;;;;;;;;30.60;99.20;;;;;;5052865;28;20274;-67
2022/08/26 12:26:19;;;;;;;;;;;30.90;98.50;;;;;;5052166;28;20206;-67
2022/08/26 12:28:49;;;;;;;;;;;31.20;97.90;;;;;;5051739;28;20669;-68
2022/08/26 12:31:25;;;;;;;;;;;31.70;98.50;;;;;;5051595;28;20624;-68
2022/08/26 12:33:54;;;;;;;;;;;32.20;96.80;;;;;;5052027;28;20227;-68
2022/08/26 12:36:23;;;;;;;;;;;32.40;96.10;;;;;;5041600;28;20213;-67
2022/08/26 12:38:51;;;;;;;;;;;32.90;95.40;;;;;;5031725;28;20899;-68
2022/08/26 12:41:40;;;;;;;;;;;33.30;95.50;;;;;;5031845;28;20750;-68
2022/08/26 12:44:29;;;;;;;;;;;33.90;94.20;;;;;;5032062;28;20178;-68
2022/08/26 12:47:01;;;;;;;;;;;34.50;91.90;;;;;;5031833;28;20726;-68
2022/08/26 12:49:28;;;;;;;;;;;35.10;91.90;;;;;;5031745;28;20180;-68
2022/08/26 12:51:57;;;;;;;;;;;35.50;91.00;;;;;;5046953;28;20248;-67
2022/08/26 12:54:57;;;;;;;;;;;35.50;90.60;;;;;;5051717;28;20273;-68
2022/08/26 12:57:13;;;;;;;;;;;35.70;89.80;;;;;;5051685;28;20195;-68
2022/08/26 12:59:42;;;;;;;;;;;36.00;88.90;;;;;;5051384;28;20598;-68
2022/08/26 13:02:10;;;;;;;;;;;35.60;89.50;;;;;;5051516;28;25133;-68
2022/08/26 13:04:40;;;;;;;;;;;35.40;88.00;;;;;;5051694;28;20163;-68
2022/08/26 13:07:21;;;;;;;;;;;34.80;88.30;;;;;;5051733;28;20194;-67
2022/08/26 13:09:50;;;;;;;;;;;34.40;88.90;;;;;;5051698;28;20244;-67
2022/08/26 13:12:28;;;;;;;;;;;33.90;89.90;;;;;;5049571;28;20527;-67
2022/08/26 13:14:58;;;;;;;;;;;33.40;89.70;;;;;;5051789;28;20223;-68
2022/08/26 13:17:26;;;;;;;;;;;32.90;90.20;;;;;;5051397;28;20370;-67
2022/08/26 13:19:54;;;;;;;;;;;33.00;89.80;;;;;;5051083;28;20177;-68
2022/08/26 13:22:29;;;;;;;;;;;33.30;90.60;;;;;;5051506;28;20172;-68
2022/08/26 13:24:57;;;;;;;;;;;33.50;90.20;;;;;;5051708;28;20163;-68
2022/08/26 13:27:26;;;;;;;;;;;34.50;89.00;;;;;;5049434;28;20188;-67
2022/08/26 13:29:53;;;;;;;;;;;35.00;87.10;;;;;;5054482;28;20246;-69
2022/08/26 13:32:23;;;;;;;;;;;34.60;87.70;;;;;;5055342;28;20177;-66
2022/08/26 13:34:54;;;;;;;;;;;34.20;89.00;;;;;;5055257;28;20246;-68
2022/08/26 13:37:22;;;;;;;;;;;33.80;89.80;;;;;;5055283;28;20173;-67
2022/08/26 13:40:03;;;;;;;;;;;33.50;90.20;;;;;;5054712;28;20180;-68
2022/08/26 13:42:31;;;;;;;;;;;33.30;90.50;;;;;;5055154;28;20644;-68
2022/08/26 13:45:01;;;;;;;;;;;33.40;90.60;;;;;;5055080;28;20707;-68
2022/08/26 13:47:30;;;;;;;;;;;33.70;90.30;;;;;;5039571;28;20182;-67
2022/08/26 13:49:58;;;;;;;;;;;34.10;90.40;;;;;;5034644;28;20171;-68
2022/08/26 13:52:26;;;;;;;;;;;34.00;90.10;;;;;;5035062;28;20067;-67
2022/08/26 13:54:57;;;;;;;;;;;34.20;90.50;;;;;;5034980;28;20299;-67
2022/08/26 13:57:27;;;;;;;;;;;34.50;90.00;;;;;;5034977;28;20178;-67
2022/08/26 13:59:57;;;;;;;;;;;34.00;90.40;;;;;;5033939;28;20227;-68
2022/08/26 14:02:25;;;;;;;;;;;33.70;90.70;;;;;;5034989;28;20190;-67
2022/08/26 14:04:55;;;;;;;;;;;33.50;90.90;;;;;;5034611;28;20274;-67
2022/08/26 14:07:23;;;;;;;;;;;33.70;90.70;;;;;;5034754;28;20236;-68
2022/08/26 14:09:51;;;;;;;;;;;34.20;90.90;;;;;;5034551;28;20179;-67
2022/08/26 14:12:18;;;;;;;;;;;34.20;90.60;;;;;;5034880;28;20599;-67
2022/08/26 14:14:46;;;;;;;;;;;34.40;90.30;;;;;;5034294;28;20673;-67
2022/08/26 14:17:17;;;;;;;;;;;33.90;90.30;;;;;;5035222;28;20193;-67
2022/08/26 14:19:46;;;;;;;;;;;33.00;91.00;;;;;;5034357;28;20310;-67
2022/08/26 14:22:15;;;;;;;;;;;32.30;91.50;;;;;;5014732;28;20250;-67
2022/08/26 14:24:43;;;;;;;;;;;31.80;92.10;;;;;;5014524;28;20168;-67
2022/08/26 14:27:11;;;;;;;;;;;31.40;92.80;;;;;;5014490;28;20192;-67
2022/08/26 14:29:39;;;;;;;;;;;31.50;93.30;;;;;;5014200;28;20227;-67
2022/08/26 14:32:10;;;;;;;;;;;31.50;93.10;;;;;;5014930;28;20204;-67
2022/08/26 14:34:38;;;;;;;;;;;31.20;93.40;;;;;;5014269;28;20283;-67
2022/08/26 14:37:06;;;;;;;;;;;31.10;93.50;;;;;;5014434;28;20214;-68
2022/08/26 14:39:39;;;;;;;;;;;31.30;93.70;;;;;;5013894;28;20200;-67
2022/08/26 14:42:08;;;;;;;;;;;31.80;93.30;;;;;;5014336;28;20190;-68
2022/08/26 14:44:37;;;;;;;;;;;32.00;93.20;;;;;;5013940;28;20227;-67